Time;durP1;ratioP1;P1;durP2;ratioP2;P2;SDS_P1;SDS_P2;PMS_P1;PMS_P2;Temp;Humidity;BMP_temperature;BMP_pressure;BME280_temperature;BME280_humidity;BME280_pressure;Samples;Min_cycle;Max_cycle;Signal;HPM_P1;HPM_P2
2022/01/21 00:00:33;;;;;;;5.97;1.80;;;;;;;-4.43;100.00;98390.59;4356946;32;20033;-78
2022/01/21 00:03:17;;;;;;;7.15;2.05;;;;;;;-4.60;100.00;98370.63;4364877;32;20065;-77
2022/01/21 00:05:43;;;;;;;5.30;2.25;;;;;;;-4.54;100.00;98390.97;4366990;32;20039;-79
2022/01/21 00:08:10;;;;;;;7.22;2.28;;;;;;;-4.56;100.00;98392.97;4353782;32;20051;-78
2022/01/21 00:10:36;;;;;;;9.48;2.47;;;;;;;-4.45;100.00;98395.22;4353041;32;20188;-79
2022/01/21 00:13:14;;;;;;;6.28;2.08;;;;;;;-4.56;100.00;98379.81;4357462;32;20066;-79
2022/01/21 00:15:40;;;;;;;7.72;2.83;;;;;;;-4.46;100.00;98408.53;4354743;32;20377;-79
2022/01/21 00:18:08;;;;;;;8.57;1.90;;;;;;;-4.43;100.00;98398.50;4358017;32;20056;-78
2022/01/21 00:31:36;;;;;;;4.93;2.45;;;;;;;-4.53;100.00;98397.88;4343042;33;20066;-79
2022/01/21 00:34:03;;;;;;;5.70;1.60;;;;;;;-4.57;100.00;98407.06;4345547;33;20098;-79
2022/01/21 00:36:35;;;;;;;9.18;2.22;;;;;;;-4.53;100.00;98408.37;4364852;32;20094;-79
2022/01/21 00:39:03;;;;;;;4.87;1.45;;;;;;;-4.46;100.00;98404.09;4360588;32;20044;-79
2022/01/21 00:41:34;;;;;;;2.25;1.25;;;;;;;-4.51;100.00;98416.91;4360440;32;20044;-79
2022/01/21 00:44:01;;;;;;;9.35;2.60;;;;;;;-4.76;100.00;98369.66;4368967;32;20403;-78
2022/01/21 00:46:27;;;;;;;2.70;1.58;;;;;;;-4.49;100.00;98425.44;4368123;32;20040;-78
2022/01/21 00:48:54;;;;;;;6.15;2.20;;;;;;;-4.54;100.00;98401.47;4356426;32;20044;-78
2022/01/21 00:51:20;;;;;;;6.35;2.05;;;;;;;-4.77;100.00;98377.72;4357225;32;20077;-78
2022/01/21 00:53:47;;;;;;;16.05;2.62;;;;;;;-4.67;100.00;98385.44;4356841;32;20035;-78
2022/01/21 00:56:14;;;;;;;8.80;1.98;;;;;;;-4.59;100.00;98388.03;4357487;32;20426;-79
2022/01/21 00:58:40;;;;;;;1.92;1.15;;;;;;;-4.61;100.00;98401.34;4355656;32;20039;-79
2022/01/21 01:01:06;;;;;;;2.60;1.67;;;;;;;-4.66;100.00;98392.31;4357435;32;20102;-78
2022/01/21 01:03:34;;;;;;;3.85;1.95;;;;;;;-4.54;100.00;98406.72;4357318;32;20060;-80
2022/01/21 01:06:00;;;;;;;5.20;1.58;;;;;;;-4.92;100.00;98346.87;4357170;32;20054;-80
2022/01/21 01:08:26;;;;;;;14.75;2.12;;;;;;;-4.34;100.00;98446.63;4355413;32;20040;-79
2022/01/21 01:11:16;;;;;;;4.00;1.42;;;;;;;-4.28;100.00;98437.22;4357077;32;20073;-79
2022/01/21 01:22:00;;;;;;;2.67;1.02;;;;;;;-4.27;100.00;98433.59;4356893;32;20069;-79
2022/01/21 01:29:58;;;;;;;4.50;1.73;;;;;;;-4.08;100.00;98470.03;4356947;32;20035;-79
2022/01/21 01:32:28;;;;;;;5.32;1.67;;;;;;;-4.40;100.00;98429.69;4354589;32;20048;-80
2022/01/21 01:34:54;;;;;;;2.28;1.15;;;;;;;-4.40;100.00;98424.44;4355858;32;20610;-79
2022/01/21 01:40:24;;;;;;;3.10;1.00;;;;;;;-4.08;100.00;98480.53;4356327;32;20061;-78
2022/01/21 01:43:09;;;;;;;2.10;1.52;;;;;;;-4.40;100.00;98429.69;4355812;32;20402;-79
2022/01/21 01:50:59;;;;;;;2.90;1.48;;;;;;;-4.07;100.00;98471.66;4355408;32;20050;-79
2022/01/21 01:53:40;;;;;;;5.37;1.58;;;;;;;-4.13;100.00;98461.00;4353084;32;20044;-79
2022/01/21 01:56:09;;;;;;;1.53;1.43;;;;;;;-4.06;100.00;98472.47;4353687;32;20073;-79
2022/01/21 01:58:38;;;;;;;6.65;1.77;;;;;;;-4.19;100.00;98457.25;4355614;32;20144;-78
2022/01/21 02:01:05;;;;;;;6.20;1.27;;;;;;;-4.19;100.00;98483.53;4353036;32;20430;-78
2022/01/21 02:03:33;;;;;;;2.83;1.30;;;;;;;-4.20;100.00;98468.75;4354771;32;20035;-79
2022/01/21 02:06:00;;;;;;;3.03;1.45;;;;;;;-4.21;100.00;98469.75;4353431;32;20071;-79
2022/01/21 02:08:29;;;;;;;10.38;1.52;;;;;;;-4.23;100.00;98466.44;4355893;32;20044;-78
2022/01/21 02:10:57;;;;;;;4.60;1.48;;;;;;;-4.15;100.00;98484.81;4356001;32;20077;-79
2022/01/21 02:13:27;;;;;;;9.65;2.00;;;;;;;-4.41;100.00;98425.41;4354329;32;20505;-79
2022/01/21 02:21:41;;;;;;;2.17;1.70;;;;;;;-4.22;100.00;98462.84;4355495;32;20044;-78
2022/01/21 02:24:13;;;;;;;2.92;1.33;;;;;;;-4.49;100.00;98443.84;4352294;32;20028;-79
2022/01/21 02:26:40;;;;;;;3.17;1.33;;;;;;;-4.34;100.00;98464.16;4355946;32;20105;-79
2022/01/21 02:29:09;;;;;;;8.70;1.60;;;;;;;-4.44;100.00;98459.91;4355330;32;20039;-79
2022/01/21 02:31:39;;;;;;;2.97;1.10;;;;;;;-4.58;100.00;98421.19;4355462;32;20369;-80
2022/01/21 02:34:08;;;;;;;4.78;1.52;;;;;;;-4.31;100.00;98467.28;4354920;32;20365;-80
2022/01/21 02:36:35;;;;;;;2.22;1.17;;;;;;;-4.70;100.00;98425.97;4353729;32;20027;-79
2022/01/21 02:39:03;;;;;;;9.75;1.20;;;;;;;-4.39;100.00;98464.66;4355605;32;20095;-79
2022/01/21 02:41:29;;;;;;;1.92;1.67;;;;;;;-4.39;100.00;98468.13;4354817;32;20087;-80
2022/01/21 02:43:56;;;;;;;0.57;0.52;;;;;;;-4.53;100.00;98455.69;4353767;32;20429;-80
2022/01/21 02:46:23;;;;;;;2.95;1.05;;;;;;;-4.56;100.00;98459.47;4355627;32;20077;-79
2022/01/21 02:48:50;;;;;;;2.72;1.95;;;;;;;-4.68;100.00;98412.69;4355515;32;20091;-80
2022/01/21 02:51:17;;;;;;;10.77;1.27;;;;;;;-4.44;100.00;98469.63;4353932;32;20035;-80
2022/01/21 02:56:12;;;;;;;1.73;1.10;;;;;;;-4.45;100.00;98463.56;4352600;32;20375;-80
2022/01/21 02:58:40;;;;;;;5.18;1.15;;;;;;;-4.61;100.00;98471.44;4353613;32;20126;-79
2022/01/21 03:01:07;;;;;;;2.90;1.67;;;;;;;-4.53;100.00;98460.94;4355451;32;20040;-79
2022/01/21 03:03:34;;;;;;;1.80;1.33;;;;;;;-4.61;100.00;98453.03;4354118;32;20054;-79
2022/01/21 03:06:01;;;;;;;2.15;1.02;;;;;;;-4.94;100.00;98379.56;4350697;32;20115;-79
2022/01/21 03:08:29;;;;;;;2.28;0.77;;;;;;;-4.76;100.00;98419.56;4351931;32;20061;-80
2022/01/21 03:10:56;;;;;;;1.45;0.95;;;;;;;-4.99;100.00;98387.13;4341149;33;20028;-80
2022/01/21 03:13:23;;;;;;;2.58;1.33;;;;;;;-4.58;100.00;98468.47;4353991;32;20376;-79
2022/01/21 03:15:52;;;;;;;1.35;1.25;;;;;;;-4.51;100.00;98479.97;4352987;32;20501;-80
2022/01/21 03:18:19;;;;;;;2.87;1.00;;;;;;;-4.51;100.00;98466.84;4356472;32;20077;-80
2022/01/21 03:20:46;;;;;;;2.75;2.08;;;;;;;-4.53;100.00;98481.97;4358605;32;20045;-80
2022/01/21 03:23:16;;;;;;;2.72;1.05;;;;;;;-4.73;100.00;98438.63;4368162;32;20043;-80
2022/01/21 03:25:46;;;;;;;12.43;1.15;;;;;;;-4.70;100.00;98433.06;4357177;32;20453;-80
2022/01/21 03:28:14;;;;;;;0.57;0.57;;;;;;;-4.40;100.00;98481.44;4357686;32;20081;-79
2022/01/21 03:30:41;;;;;;;0.98;0.82;;;;;;;-4.46;100.00;98492.63;4357500;32;20052;-80
2022/01/21 03:33:08;;;;;;;1.58;0.85;;;;;;;-4.52;100.00;98483.59;4357798;32;20098;-80
2022/01/21 03:35:35;;;;;;;7.43;1.25;;;;;;;-4.47;100.00;98496.22;4345338;33;20371;-79
2022/01/21 03:38:02;;;;;;;2.33;0.82;;;;;;;-4.37;100.00;98499.50;4355334;32;20036;-78
2022/01/21 03:40:29;;;;;;;10.05;2.03;;;;;;;-4.39;100.00;98498.84;4358570;32;20052;-78
2022/01/21 03:42:56;;;;;;;3.40;1.30;;;;;;;-4.60;100.00;98452.06;4357894;32;20070;-78
2022/01/21 03:45:23;;;;;;;5.15;1.33;;;;;;;-4.60;100.00;98454.69;4358643;32;20048;-78
2022/01/21 03:47:52;;;;;;;4.35;1.50;;;;;;;-4.30;100.00;98486.53;4364297;32;20496;-80
2022/01/21 03:50:32;;;;;;;1.17;1.02;;;;;;;-4.33;100.00;98502.62;4342000;33;20784;-78
2022/01/21 03:53:01;;;;;;;7.30;1.40;;;;;;;-4.23;100.00;98482.22;4358605;32;20361;-78
2022/01/21 03:55:35;;;;;;;1.67;0.73;;;;;;;-4.39;100.00;98468.13;4354278;32;20101;-78
2022/01/21 03:58:04;;;;;;;8.50;1.52;;;;;;;-4.27;100.00;98486.19;4357019;32;20059;-78
2022/01/21 04:00:35;;;;;;;4.35;0.85;;;;;;;-4.18;100.00;98500.94;4357951;32;20044;-78
2022/01/21 04:03:09;;;;;;;0.60;0.60;;;;;;;-4.59;100.00;98414.31;4350904;32;20128;-80
2022/01/21 04:05:36;;;;;;;2.22;0.82;;;;;;;-4.17;100.00;98499.13;4357282;32;20069;-78
2022/01/21 04:08:04;;;;;;;6.12;1.33;;;;;;;-4.27;100.00;98508.03;4357564;32;20032;-78
2022/01/21 04:10:32;;;;;;;2.28;1.35;;;;;;;-4.21;100.00;98496.03;4356818;32;20048;-78
2022/01/21 04:12:58;;;;;;;4.35;1.02;;;;;;;-4.30;100.00;98502.28;4356363;32;20370;-78
2022/01/21 04:15:25;;;;;;;1.37;1.08;;;;;;;-4.47;100.00;98460.25;4356590;32;20426;-78
2022/01/21 04:17:52;;;;;;;1.58;1.02;;;;;;;-4.24;100.00;98486.66;4357484;32;20336;-78
2022/01/21 04:20:19;;;;;;;2.87;1.10;;;;;;;-4.07;100.00;98508.50;4356339;32;20050;-78
2022/01/21 04:22:46;;;;;;;2.90;1.15;;;;;;;-4.30;100.00;98424.25;4356613;32;20039;-78
2022/01/21 04:25:13;;;;;;;6.20;1.23;;;;;;;-3.96;100.00;98498.59;4357923;32;20039;-79
2022/01/21 04:27:39;;;;;;;3.47;1.08;;;;;;;-4.32;100.00;98477.97;4355381;32;20083;-79
2022/01/21 04:30:08;;;;;;;6.43;1.12;;;;;;;-4.31;100.00;98463.84;4356562;32;20106;-79
2022/01/21 04:32:35;;;;;;;5.70;1.05;;;;;;;-4.02;100.00;98506.16;4357746;32;20418;-78
2022/01/21 04:35:03;;;;;;;2.58;0.85;;;;;;;-3.90;100.00;98492.66;4358105;32;20054;-79
2022/01/21 04:37:29;;;;;;;9.38;1.42;;;;;;;-3.89;100.00;98489.03;4353989;32;20434;-79
2022/01/21 04:40:07;;;;;;;4.30;1.92;;;;;;;-3.87;100.00;98501.00;4357115;32;20040;-80
2022/01/21 04:48:07;;;;;;;6.12;1.52;;;;;;;-3.86;100.00;98512.34;4357092;32;20048;-81
2022/01/21 04:50:52;;;;;;;4.35;1.70;;;;;;;-3.90;100.00;98508.44;4355485;32;20044;-80
2022/01/21 04:53:20;;;;;;;3.92;0.93;;;;;;;-4.24;100.00;98438.53;4356944;32;20395;-81
2022/01/21 04:55:47;;;;;;;1.50;1.15;;;;;;;-3.76;100.00;98518.25;4357358;32;20057;-79
2022/01/21 04:58:14;;;;;;;2.25;1.05;;;;;;;-3.80;100.00;98490.63;4355503;32;20050;-79
2022/01/21 05:00:43;;;;;;;16.70;1.87;;;;;;;-3.75;100.00;98517.25;4354158;32;20040;-79
2022/01/21 05:03:11;;;;;;;2.35;1.17;;;;;;;-3.83;100.00;98504.12;4356319;32;20040;-79
2022/01/21 05:05:39;;;;;;;1.37;1.12;;;;;;;-3.86;100.00;98467.63;4355661;32;20343;-79
2022/01/21 05:08:09;;;;;;;2.47;1.12;;;;;;;-3.91;100.00;98485.72;4355062;32;20377;-80
2022/01/21 05:10:37;;;;;;;9.65;1.30;;;;;;;-3.67;100.00;98513.75;4356169;32;20051;-79
2022/01/21 05:13:05;;;;;;;2.45;1.27;;;;;;;-3.93;100.00;98466.69;4352009;32;20066;-79
2022/01/21 05:16:01;;;;;;;5.12;1.05;;;;;;;-3.62;100.00;98552.72;4354427;32;20035;-79
2022/01/21 05:18:29;;;;;;;7.62;1.05;;;;;;;-3.87;100.00;98493.13;4356598;32;20097;-78
2022/01/21 05:20:56;;;;;;;1.15;0.88;;;;;;;-3.58;100.00;98517.19;4357051;32;20036;-85
2022/01/21 05:23:24;;;;;;;1.75;1.12;;;;;;;-3.58;100.00;98511.94;4356449;32;20365;-85
2022/01/21 05:25:52;;;;;;;2.33;1.48;;;;;;;-3.56;100.00;98521.28;4353930;32;20061;-82
2022/01/21 05:28:19;;;;;;;5.47;1.00;;;;;;;-3.45;100.00;98509.56;4356623;32;20802;-85
2022/01/21 05:30:48;;;;;;;3.83;1.23;;;;;;;-3.42;100.00;98521.56;4356144;32;20316;-84
2022/01/21 05:33:15;;;;;;;5.90;0.80;;;;;;;-3.40;100.00;98512.47;4355901;32;20069;-82
2022/01/21 05:35:43;;;;;;;6.40;1.87;;;;;;;-3.56;100.00;98510.75;4354409;32;20063;-79
2022/01/21 05:38:10;;;;;;;9.52;1.42;;;;;;;-3.59;100.00;98526.06;4354750;32;20043;-83
2022/01/21 05:40:38;;;;;;;2.42;1.10;;;;;;;-3.62;100.00;98507.97;4356207;32;20410;-82
2022/01/21 05:43:05;;;;;;;2.70;0.98;;;;;;;-3.54;100.00;98518.47;4354143;32;20040;-79
2022/01/21 05:48:20;;;;;;;2.12;1.12;;;;;;;-3.49;100.00;98516.97;4347700;33;20476;-79
2022/01/21 05:50:49;;;;;;;5.68;1.85;;;;;;;-3.67;100.00;98490.91;4355777;32;20109;-79
2022/01/21 05:53:17;;;;;;;3.03;1.27;;;;;;;-3.37;100.00;98541.09;4354817;32;20036;-78
2022/01/21 05:55:44;;;;;;;1.37;0.77;;;;;;;-3.46;100.00;98515.81;4354694;32;20464;-81
2022/01/21 05:58:13;;;;;;;1.92;1.35;;;;;;;-3.61;100.00;98475.44;4355838;32;20066;-82
2022/01/21 06:00:43;;;;;;;2.80;0.80;;;;;;;-3.33;100.00;98525.78;4355733;32;20484;-81
2022/01/21 06:03:12;;;;;;;0.90;0.90;;;;;;;-3.37;100.00;98546.34;4354117;32;20047;-78
2022/01/21 06:05:38;;;;;;;4.25;0.75;;;;;;;-3.35;100.00;98554.94;4356425;32;20239;-80
2022/01/21 06:08:05;;;;;;;2.75;1.90;;;;;;;-3.35;100.00;98554.94;4355961;32;20077;-80
2022/01/21 06:10:32;;;;;;;5.20;0.80;;;;;;;-3.26;100.00;98539.09;4354587;32;20353;-80
2022/01/21 06:12:58;;;;;;;1.67;0.90;;;;;;;-3.35;100.00;98502.28;4351763;32;20048;-80
2022/01/21 06:15:26;;;;;;;10.05;1.08;;;;;;;-3.37;100.00;98541.09;4350538;32;20377;-79
2022/01/21 06:17:53;;;;;;;3.58;1.30;;;;;;;-3.26;100.00;98568.03;4345199;32;20086;-80
2022/01/21 06:20:19;;;;;;;2.62;1.42;;;;;;;-3.29;100.00;98551.63;4355862;32;20044;-82
2022/01/21 06:22:46;;;;;;;1.80;0.98;;;;;;;-3.23;100.00;98541.38;4356903;32;20043;-82
2022/01/21 06:25:13;;;;;;;7.22;1.00;;;;;;;-3.31;100.00;98540.41;4355810;32;20456;-81
2022/01/21 06:27:40;;;;;;;2.42;0.82;;;;;;;-3.47;100.00;98503.66;4352806;32;20728;-83
2022/01/21 06:30:08;;;;;;;4.70;1.15;;;;;;;-3.33;100.00;98537.13;4356181;32;20082;-84
2022/01/21 06:32:35;;;;;;;5.22;1.30;;;;;;;-3.35;100.00;98559.34;4356080;32;20062;-81
2022/01/21 06:35:03;;;;;;;3.62;1.58;;;;;;;-3.70;100.00;98478.09;4354933;32;20061;-82
2022/01/21 06:37:30;;;;;;;8.95;1.25;;;;;;;-3.19;100.00;98558.44;4345948;32;20024;-81
2022/01/21 06:39:57;;;;;;;1.62;1.00;;;;;;;-3.37;100.00;98574.50;4350569;32;20084;-81
2022/01/21 06:42:25;;;;;;;2.55;1.08;;;;;;;-3.30;100.00;98542.06;4353564;32;20366;-82
2022/01/21 06:44:52;;;;;;;4.70;1.08;;;;;;;-3.30;100.00;98557.03;4355462;32;20039;-80
2022/01/21 06:47:19;;;;;;;6.55;1.58;;;;;;;-3.35;100.00;98567.25;4354783;32;20051;-80
2022/01/21 06:49:46;;;;;;;3.33;1.40;;;;;;;-3.67;100.00;98535.66;4353371;32;20377;-80
2022/01/21 06:52:13;;;;;;;4.45;1.40;;;;;;;-3.25;100.00;98573.16;4354381;32;20048;-80
2022/01/21 06:54:41;;;;;;;14.35;1.37;;;;;;;-3.34;100.00;98603.94;4355271;32;20171;-82
2022/01/21 06:57:08;;;;;;;5.78;1.27;;;;;;;-3.49;100.00;98537.22;4355721;32;20035;-79
2022/01/21 06:59:34;;;;;;;2.28;0.88;;;;;;;-3.29;100.00;98564.78;4352692;32;20382;-80
2022/01/21 07:02:01;;;;;;;2.97;1.00;;;;;;;-3.33;100.00;98589.78;4355507;32;20036;-80
2022/01/21 07:04:27;;;;;;;2.33;1.17;;;;;;;-3.36;100.00;98563.00;4355566;33;20044;-81
2022/01/21 07:06:56;;;;;;;5.25;1.10;;;;;;;-3.26;100.00;98578.59;4355262;32;20073;-84
2022/01/21 07:09:25;;;;;;;0.88;0.80;;;;;;;-3.51;100.00;98539.19;4352560;32;20395;-80
2022/01/21 07:11:51;;;;;;;0.80;0.80;;;;;;;-3.23;100.00;98610.66;4354778;33;20044;-78
2022/01/21 07:14:17;;;;;;;5.03;1.00;;;;;;;-3.31;100.00;98622.03;4351594;32;20381;-81
2022/01/21 07:16:44;;;;;;;2.58;1.85;;;;;;;-3.46;100.00;98584.25;4351990;32;20069;-80
2022/01/21 07:19:10;;;;;;;2.87;2.12;;;;;;;-3.31;100.00;98584.34;4349229;32;20040;-82
2022/01/21 07:21:37;;;;;;;4.18;1.15;;;;;;;-3.31;100.00;98577.28;4352029;32;20409;-81
2022/01/21 07:24:05;;;;;;;5.30;1.10;;;;;;;-3.57;100.00;98558.31;4354151;32;20073;-80
2022/01/21 07:26:39;;;;;;;5.53;1.65;;;;;;;-3.52;100.00;98580.50;4352430;32;20047;-80
2022/01/21 07:29:06;;;;;;;2.83;1.15;;;;;;;-3.42;100.00;98601.34;4352487;32;20887;-78
2022/01/21 07:31:33;;;;;;;4.30;1.25;;;;;;;-3.37;100.00;98604.28;4365248;32;20065;-82
2022/01/21 07:34:04;;;;;;;2.45;1.25;;;;;;;-3.37;100.00;98588.47;4351133;33;20129;-80
2022/01/21 07:36:34;;;;;;;6.78;1.17;;;;;;;-3.30;100.00;98612.34;4354856;32;20459;-80
2022/01/21 07:39:03;;;;;;;6.75;0.90;;;;;;;-3.42;100.00;98619.78;4355203;32;20057;-82
2022/01/21 07:41:30;;;;;;;4.72;0.90;;;;;;;-3.29;100.00;98620.06;4366180;32;20061;-82
2022/01/21 07:43:57;;;;;;;1.87;1.27;;;;;;;-3.34;100.00;98638.16;4354839;32;20204;-81
2022/01/21 07:46:23;;;;;;;8.25;1.40;;;;;;;-3.32;100.00;98616.94;4353994;32;20048;-81
2022/01/21 07:48:50;;;;;;;1.40;1.10;;;;;;;-3.66;100.00;98554.88;4352337;33;20071;-82
2022/01/21 07:51:17;;;;;;;8.80;2.67;;;;;;;-3.32;100.00;98624.84;4354964;32;20745;-81
2022/01/21 07:53:43;;;;;;;12.15;1.70;;;;;;;-3.50;100.00;98593.47;4355681;32;20464;-81
2022/01/21 07:56:10;;;;;;;2.17;1.00;;;;;;;-3.26;100.00;98636.50;4354841;32;20066;-83
2022/01/21 07:58:37;;;;;;;11.18;1.67;;;;;;;-3.66;100.00;98589.91;4364997;32;20051;-79
2022/01/21 08:01:03;;;;;;;7.72;2.12;;;;;;;-3.19;100.00;98640.09;4354867;32;20065;-82
2022/01/21 08:03:30;;;;;;;3.00;0.88;;;;;;;-3.40;100.00;98625.69;4354546;32;20068;-87
2022/01/21 08:05:57;;;;;;;8.27;1.37;;;;;;;-3.29;100.00;98633.22;4357061;32;20048;-80
2022/01/21 08:08:26;;;;;;;2.65;1.58;;;;;;;-3.45;100.00;98616.66;4369436;32;20369;-81
2022/01/21 08:10:59;;;;;;;7.75;2.35;;;;;;;-3.81;100.00;98517.94;4357801;32;20075;-85
2022/01/21 08:13:27;;;;;;;5.80;1.50;;;;;;;-3.23;100.00;98625.62;4358108;32;20028;-79
2022/01/21 08:15:55;;;;;;;3.00;1.40;;;;;;;-3.34;100.00;98630.28;4357850;32;20043;-80
2022/01/21 08:18:22;;;;;;;7.45;1.42;;;;;;;-3.44;100.00;98644.63;4356422;32;20049;-81
2022/01/21 08:20:48;;;;;;;9.15;1.52;;;;;;;-3.44;100.00;98665.69;4367724;32;20046;-80
2022/01/21 08:23:15;;;;;;;3.70;1.45;;;;;;;-3.43;100.00;98644.47;4358336;32;20097;-83
2022/01/21 08:25:43;;;;;;;4.43;1.83;;;;;;;-3.73;100.00;98604.72;4359882;32;20039;-80
2022/01/21 08:28:09;;;;;;;12.20;2.05;;;;;;;-3.57;100.00;98601.25;4361004;32;20039;-85
2022/01/21 08:30:36;;;;;;;6.45;1.42;;;;;;;-3.28;100.00;98645.37;4352731;32;20078;-83
2022/01/21 08:33:03;;;;;;;7.82;2.12;;;;;;;-3.70;100.00;98598.28;4357494;32;20077;-85
2022/01/21 08:35:31;;;;;;;10.77;2.42;;;;;;;-3.61;100.00;98617.53;4359168;32;20079;-84
2022/01/21 08:38:05;;;;;;;4.40;1.77;;;;;;;-3.62;100.00;98605.34;4358299;32;20039;-83
2022/01/21 08:40:32;;;;;;;7.37;1.67;;;;;;;-3.25;100.00;98657.41;4355298;32;20062;-84
2022/01/21 08:42:59;;;;;;;4.37;1.40;;;;;;;-3.22;100.00;98664.97;4355851;32;20187;-83
2022/01/21 08:45:26;;;;;;;7.72;2.20;;;;;;;-3.37;100.00;98664.84;4355031;32;20028;-84
2022/01/21 08:47:52;;;;;;;3.92;1.62;;;;;;;-3.30;100.00;98642.13;4357058;32;20073;-85
2022/01/21 08:50:20;;;;;;;5.03;2.28;;;;;;;-3.48;100.00;98650.25;4354668;32;20044;-84
2022/01/21 08:52:47;;;;;;;5.87;2.03;;;;;;;-3.16;100.00;98674.00;4356378;32;20353;-84
2022/01/21 08:55:16;;;;;;;7.47;2.67;;;;;;;-3.26;100.00;98645.22;4349988;32;20032;-83
2022/01/21 08:57:44;;;;;;;2.53;1.40;;;;;;;-3.10;100.00;98652.25;4341494;33;20032;-85
2022/01/21 09:00:15;;;;;;;11.27;2.08;;;;;;;-3.02;100.00;98669.81;4368324;32;20149;-85
2022/01/21 09:02:42;;;;;;;3.87;1.83;;;;;;;-3.00;100.00;98668.69;4370773;32;20051;-85
2022/01/21 09:05:09;;;;;;;3.65;1.40;;;;;;;-2.97;100.00;98673.59;4349389;32;20043;-85
2022/01/21 09:07:36;;;;;;;3.30;1.37;;;;;;;-3.19;100.00;98616.38;4348109;32;20043;-86
2022/01/21 09:10:06;;;;;;;11.65;3.00;;;;;;;-3.28;100.00;98610.34;4366595;32;20055;-83
2022/01/21 09:12:33;;;;;;;11.50;1.95;;;;;;;-2.88;100.00;98663.03;4368214;32;20113;-85
2022/01/21 09:15:07;;;;;;;8.30;2.53;;;;;;;-3.04;100.00;98654.19;4355222;32;20528;-84
2022/01/21 09:17:36;;;;;;;4.90;1.70;;;;;;;-2.87;100.00;98662.00;4356014;32;20389;-85
2022/01/21 09:20:04;;;;;;;13.50;3.75;;;;;;;-2.81;100.00;98671.88;4352879;32;20028;-85
2022/01/21 09:22:30;;;;;;;3.17;1.35;;;;;;;-3.03;100.00;98626.88;4354890;32;20051;-85
2022/01/21 09:24:57;;;;;;;4.93;1.67;;;;;;;-2.86;100.00;98671.56;4356976;32;20304;-85
2022/01/21 09:27:23;;;;;;;8.15;1.85;;;;;;;-2.72;100.00;98660.28;4355988;32;20394;-82
2022/01/21 09:29:50;;;;;;;16.98;3.25;;;;;;;-2.77;100.00;98658.19;4355132;32;20084;-79
2022/01/21 09:32:17;;;;;;;15.90;3.40;;;;;;;-2.65;100.00;98671.81;4355326;32;20073;-80
2022/01/21 09:34:43;;;;;;;9.13;2.10;;;;;;;-2.54;100.00;98667.94;4355724;32;20634;-83
2022/01/21 09:37:10;;;;;;;22.37;3.97;;;;;;;-2.77;100.00;98631.00;4368345;32;20399;-81
2022/01/21 09:39:37;;;;;;;14.10;3.03;;;;;;;-2.73;100.00;98648.09;4352837;32;20083;-81
2022/01/21 09:42:06;;;;;;;10.02;1.37;;;;;;;-2.41;100.00;98672.63;4365260;32;20040;-81
2022/01/21 09:44:34;;;;;;;19.23;3.10;;;;;;;-2.45;100.00;98644.97;4350969;32;20077;-81
2022/01/21 09:47:03;;;;;;;6.03;2.28;;;;;;;-2.61;100.00;98644.09;4343342;33;20069;-82
2022/01/21 09:49:29;;;;;;;7.07;2.03;;;;;;;-2.48;100.00;98632.16;4343044;33;20107;-82
2022/01/21 09:52:08;;;;;;;4.45;1.75;;;;;;;-2.41;100.00;98659.44;4351948;32;20037;-82
2022/01/21 09:54:43;;;;;;;8.70;1.77;;;;;;;-2.44;100.00;98662.44;4349012;32;20055;-81
2022/01/21 09:57:10;;;;;;;6.32;1.95;;;;;;;-2.27;100.00;98661.31;4357070;32;20105;-80
2022/01/21 09:59:38;;;;;;;5.30;2.62;;;;;;;-2.30;100.00;98674.84;4357314;32;20035;-79
2022/01/21 10:04:42;;;;;;;6.82;2.17;;;;;;;-2.27;100.00;98658.69;4357027;32;20150;-81
2022/01/21 10:07:14;;;;;;;4.68;1.75;;;;;;;-2.03;100.00;98656.84;4368888;32;20076;-81
2022/01/21 10:09:43;;;;;;;15.68;2.25;;;;;;;-1.90;100.00;98664.16;4368924;32;20342;-81
2022/01/21 10:12:10;;;;;;;10.30;2.78;;;;;;;-2.29;100.00;98660.69;4370979;32;20148;-81
2022/01/21 10:14:38;;;;;;;11.88;3.28;;;;;;;-2.31;100.00;98620.50;4371125;32;20065;-82
2022/01/21 10:17:06;;;;;;;16.95;2.62;;;;;;;-1.98;100.00;98680.06;4369552;32;20437;-82
2022/01/21 10:19:39;;;;;;;10.18;3.65;;;;;;;-2.04;100.00;98674.50;4366030;32;20052;-81
2022/01/21 10:22:17;;;;;;;6.87;2.22;;;;;;;-2.20;100.00;98633.25;4355791;32;20052;-81
2022/01/21 10:24:51;;;;;;;9.50;1.85;;;;;;;-1.89;100.00;98666.63;4356829;32;20048;-82
2022/01/21 10:27:35;;;;;;;4.00;1.50;;;;;;;-1.90;100.00;98665.00;4354605;32;20065;-79
2022/01/21 10:30:17;;;;;;;5.03;2.30;;;;;;;-1.96;100.00;98668.34;4354553;32;20043;-82
2022/01/21 10:32:44;;;;;;;2.15;1.12;;;;;;;-1.77;100.00;98647.72;4355071;32;20044;-80
2022/01/21 10:35:32;;;;;;;6.68;1.98;;;;;;;-1.98;100.00;98651.84;4354923;32;20079;-82
2022/01/21 10:38:22;;;;;;;5.97;1.73;;;;;;;-2.06;100.00;98601.81;4371563;32;20079;-82
2022/01/21 10:40:48;;;;;;;7.25;1.80;;;;;;;-1.65;100.00;98673.50;4367806;32;20083;-82
2022/01/21 10:43:18;;;;;;;3.08;2.05;;;;;;;-1.65;100.00;98657.66;4360541;32;20107;-79
2022/01/21 10:46:03;;;;;;;10.98;2.30;;;;;;;-1.50;100.00;98675.34;4370600;32;20107;-80
2022/01/21 10:49:09;;;;;;;7.57;1.67;;;;;;;-1.95;100.00;98629.59;4363139;32;20114;-84
2022/01/21 10:51:41;;;;;;;2.30;1.17;;;;;;;-1.76;100.00;98694.25;4367204;32;20069;-84
2022/01/21 10:54:26;;;;;;;2.90;1.05;;;;;;;-1.72;100.00;98679.69;4359070;32;20748;-85
2022/01/21 10:57:01;;;;;;;4.85;1.55;;;;;;;-1.64;100.00;98669.06;4347538;32;20031;-81
2022/01/21 10:59:48;;;;;;;3.10;1.20;;;;;;;-2.02;100.00;98632.13;4356888;32;20043;-83
2022/01/21 11:02:29;;;;;;;7.03;1.87;;;;;;;-1.83;100.00;98673.84;4343501;32;20065;-84
2022/01/21 11:04:59;;;;;;;3.35;1.40;;;;;;;-1.70;100.00;98688.25;4353190;32;21127;-83
2022/01/21 11:07:44;;;;;;;5.35;2.17;;;;;;;-1.71;100.00;98689.25;4344143;32;20048;-83
2022/01/21 11:10:40;;;;;;;2.10;1.10;;;;;;;-1.50;100.00;98660.34;4354235;32;20103;-84
2022/01/21 11:13:12;;;;;;;8.18;2.22;;;;;;;-1.76;100.00;98662.56;4356128;32;20043;-82
2022/01/21 11:15:45;;;;;;;3.55;2.00;;;;;;;-1.70;100.00;98670.59;4357910;32;20057;-84
2022/01/21 11:18:18;;;;;;;8.02;2.65;;;;;;;-1.66;100.00;98681.59;4356559;32;20384;-79
2022/01/21 11:20:49;;;;;;;7.65;2.10;;;;;;;-1.95;100.00;98646.22;4355436;32;20114;-84
2022/01/21 11:23:17;;;;;;;4.62;1.80;;;;;;;-2.05;100.00;98640.38;4354664;32;20216;-84
2022/01/21 11:25:54;;;;;;;6.37;1.75;;;;;;;-1.70;100.00;98696.97;4355428;32;20476;-85
2022/01/21 11:28:24;;;;;;;8.98;1.67;;;;;;;-1.68;100.00;98650.09;4353572;32;20418;-81
2022/01/21 11:30:53;;;;;;;6.07;1.70;;;;;;;-1.75;100.00;98682.69;4355435;32;20382;-82
2022/01/21 11:33:21;;;;;;;11.68;1.70;;;;;;;-1.78;100.00;98677.78;4344373;32;20421;-81
2022/01/21 11:35:49;;;;;;;7.35;2.45;;;;;;;-1.80;100.00;98664.75;4352515;32;20367;-80
2022/01/21 11:38:18;;;;;;;12.15;2.78;;;;;;;-1.76;100.00;98667.84;4354028;32;20059;-82
2022/01/21 11:40:47;;;;;;;12.82;2.12;;;;;;;-1.58;100.00;98655.16;4356536;32;20138;-82
2022/01/21 11:43:15;;;;;;;8.85;2.22;;;;;;;-1.60;100.00;98672.97;4356774;32;20051;-80
2022/01/21 11:48:52;;;;;;;8.23;2.37;;;;;;;-1.58;100.00;98652.50;4358768;32;20075;-82
2022/01/21 11:51:23;;;;;;;8.70;2.50;;;;;;;-1.76;100.00;98622.97;4359079;32;20377;-80
2022/01/21 11:53:58;;;;;;;1.50;1.35;;;;;;;-1.63;100.00;98669.88;4343559;32;20044;-84
2022/01/21 11:56:36;;;;;;;4.90;1.60;;;;;;;-1.65;100.00;98667.41;4360019;32;20040;-85
2022/01/21 11:59:51;;;;;;;8.95;1.67;;;;;;;-1.84;100.00;98616.75;4353598;32;20069;-83
2022/01/21 12:02:29;;;;;;;2.92;1.48;;;;;;;-1.60;100.00;98654.47;4358515;32;20222;-83
2022/01/21 12:05:02;;;;;;;1.42;1.17;;;;;;;-1.49;100.00;98666.44;4344036;32;20094;-85
2022/01/21 12:07:36;;;;;;;4.78;1.42;;;;;;;-1.57;100.00;98664.69;4358556;32;20520;-83
2022/01/21 12:10:25;;;;;;;10.10;1.77;;;;;;;-1.53;100.00;98675.69;4343865;32;20064;-81
2022/01/21 12:21:34;;;;;;;3.70;2.03;;;;;;;-1.54;100.00;98642.38;4334941;32;20946;-81
2022/01/21 12:24:00;;;;;;;9.82;3.03;;;;;;;-1.53;100.00;98663.34;4356112;32;20066;-80
2022/01/21 12:26:29;;;;;;;6.75;2.00;;;;;;;-1.51;100.00;98653.41;4356209;32;20699;-79
2022/01/21 12:28:58;;;;;;;7.85;1.62;;;;;;;-1.68;100.00;98625.53;4352473;32;20078;-81
2022/01/21 12:31:53;;;;;;;6.32;1.80;;;;;;;-1.55;100.00;98660.03;4359112;32;20478;-80
2022/01/21 12:34:27;;;;;;;4.40;1.67;;;;;;;-1.73;100.00;98667.50;4362686;32;20219;-80
2022/01/21 12:37:00;;;;;;;4.25;1.17;;;;;;;-2.01;100.00;98646.94;4369893;32;20114;-81
2022/01/21 12:39:41;;;;;;;3.35;1.77;;;;;;;-1.90;100.00;98664.16;4364992;32;20106;-79